sensor_id;sensor_type;location;lat;lon;timestamp;pressure;altitude;pressure_sealevel;temperature;humidity
44453;BME280;30155;52.164;21.236;2023-07-30T00:04:40;99586.48;;;19.04;78.72
44453;BME280;30155;52.164;21.236;2023-07-30T00:09:32;99595.20;;;19.00;79.01
44453;BME280;30155;52.164;21.236;2023-07-30T00:14:23;99604.12;;;18.97;78.95
44453;BME280;30155;52.164;21.236;2023-07-30T00:19:15;99608.27;;;18.93;79.02
44453;BME280;30155;52.164;21.236;2023-07-30T00:24:06;99611.24;;;18.94;79.23
44453;BME280;30155;52.164;21.236;2023-07-30T00:28:57;99617.15;;;18.91;79.19
44453;BME280;30155;52.164;21.236;2023-07-30T00:33:49;99623.61;;;18.87;79.39
44453;BME280;30155;52.164;21.236;2023-07-30T00:38:40;99627.38;;;18.84;79.31
44453;BME280;30155;52.164;21.236;2023-07-30T00:43:33;99629.59;;;18.80;79.34
44453;BME280;30155;52.164;21.236;2023-07-30T00:48:25;99624.80;;;18.77;79.37
44453;BME280;30155;52.164;21.236;2023-07-30T00:53:17;99631.77;;;18.73;79.54
44453;BME280;30155;52.164;21.236;2023-07-30T00:58:10;99630.92;;;18.72;79.69
44453;BME280;30155;52.164;21.236;2023-07-30T01:03:03;99633.02;;;18.73;79.86
44453;BME280;30155;52.164;21.236;2023-07-30T01:07:55;99642.49;;;18.73;79.89
44453;BME280;30155;52.164;21.236;2023-07-30T01:12:47;99647.30;;;18.71;79.92
44453;BME280;30155;52.164;21.236;2023-07-30T01:17:39;99647.02;;;18.68;79.88
44453;BME280;30155;52.164;21.236;2023-07-30T01:22:31;99640.65;;;18.64;80.01
44453;BME280;30155;52.164;21.236;2023-07-30T01:27:25;99643.40;;;18.61;80.10
44453;BME280;30155;52.164;21.236;2023-07-30T01:32:24;99652.06;;;18.53;79.97
44453;BME280;30155;52.164;21.236;2023-07-30T01:37:17;99654.04;;;18.47;80.12
44453;BME280;30155;52.164;21.236;2023-07-30T01:42:11;99656.45;;;18.43;80.35
44453;BME280;30155;52.164;21.236;2023-07-30T01:47:03;99662.48;;;18.41;80.41
44453;BME280;30155;52.164;21.236;2023-07-30T01:51:54;99653.02;;;18.40;80.64
44453;BME280;30155;52.164;21.236;2023-07-30T01:56:46;99653.77;;;18.39;80.58
44453;BME280;30155;52.164;21.236;2023-07-30T02:01:37;99657.89;;;18.36;80.69
44453;BME280;30155;52.164;21.236;2023-07-30T02:06:29;99665.52;;;18.33;80.72
44453;BME280;30155;52.164;21.236;2023-07-30T02:11:20;99665.21;;;18.32;80.88
44453;BME280;30155;52.164;21.236;2023-07-30T02:16:12;99662.61;;;18.31;80.98
44453;BME280;30155;52.164;21.236;2023-07-30T02:21:04;99659.69;;;18.28;80.96
44453;BME280;30155;52.164;21.236;2023-07-30T02:25:55;99661.06;;;18.24;80.93
44453;BME280;30155;52.164;21.236;2023-07-30T02:30:47;99666.95;;;18.21;80.97
44453;BME280;30155;52.164;21.236;2023-07-30T02:35:39;99672.84;;;18.18;81.13
44453;BME280;30155;52.164;21.236;2023-07-30T02:40:31;99678.52;;;18.16;81.15
44453;BME280;30155;52.164;21.236;2023-07-30T02:45:22;99680.87;;;18.13;81.27
44453;BME280;30155;52.164;21.236;2023-07-30T02:50:14;99688.27;;;18.13;81.25
44453;BME280;30155;52.164;21.236;2023-07-30T02:55:06;99687.08;;;18.11;81.39
44453;BME280;30155;52.164;21.236;2023-07-30T02:59:57;99684.34;;;18.09;81.40
44453;BME280;30155;52.164;21.236;2023-07-30T03:04:49;99680.02;;;18.07;81.57
44453;BME280;30155;52.164;21.236;2023-07-30T03:09:41;99679.94;;;18.04;81.59
44453;BME280;30155;52.164;21.236;2023-07-30T03:14:32;99678.36;;;18.04;81.74
44453;BME280;30155;52.164;21.236;2023-07-30T03:19:24;99679.92;;;18.04;81.84
44453;BME280;30155;52.164;21.236;2023-07-30T03:24:15;99685.45;;;18.07;81.95
44453;BME280;30155;52.164;21.236;2023-07-30T03:29:13;99686.33;;;18.07;82.03
44453;BME280;30155;52.164;21.236;2023-07-30T03:34:04;99691.02;;;18.08;82.14
44453;BME280;30155;52.164;21.236;2023-07-30T03:38:56;99697.66;;;18.09;82.43
44453;BME280;30155;52.164;21.236;2023-07-30T03:43:48;99702.46;;;18.13;82.50
44453;BME280;30155;52.164;21.236;2023-07-30T03:48:39;99697.62;;;18.16;82.65
44453;BME280;30155;52.164;21.236;2023-07-30T03:53:31;99698.16;;;18.21;82.69
44453;BME280;30155;52.164;21.236;2023-07-30T03:58:22;99702.02;;;18.26;82.74
44453;BME280;30155;52.164;21.236;2023-07-30T04:03:14;99710.08;;;18.33;82.83
44453;BME280;30155;52.164;21.236;2023-07-30T04:08:06;99707.47;;;18.38;82.85
44453;BME280;30155;52.164;21.236;2023-07-30T04:12:57;99706.77;;;18.44;82.95
44453;BME280;30155;52.164;21.236;2023-07-30T04:17:50;99710.47;;;18.49;82.83
44453;BME280;30155;52.164;21.236;2023-07-30T04:22:41;99718.02;;;18.55;83.02
44453;BME280;30155;52.164;21.236;2023-07-30T04:27:33;99721.23;;;18.58;83.04
44453;BME280;30155;52.164;21.236;2023-07-30T04:32:25;99728.77;;;18.70;82.73
44453;BME280;30155;52.164;21.236;2023-07-30T04:37:17;99733.14;;;18.82;82.74
44453;BME280;30155;52.164;21.236;2023-07-30T04:42:21;99747.56;;;18.86;82.68
44453;BME280;30155;52.164;21.236;2023-07-30T04:47:13;99756.82;;;18.93;82.62
44453;BME280;30155;52.164;21.236;2023-07-30T04:52:05;99763.03;;;18.91;82.47
44453;BME280;30155;52.164;21.236;2023-07-30T04:56:56;99773.07;;;18.90;82.46
44453;BME280;30155;52.164;21.236;2023-07-30T05:01:48;99773.52;;;18.87;82.42
44453;BME280;30155;52.164;21.236;2023-07-30T05:06:40;99776.96;;;18.90;82.33
44453;BME280;30155;52.164;21.236;2023-07-30T05:11:31;99781.45;;;18.92;82.35
44453;BME280;30155;52.164;21.236;2023-07-30T05:16:23;99791.41;;;18.93;82.31
44453;BME280;30155;52.164;21.236;2023-07-30T05:21:14;99798.16;;;18.96;82.01
44453;BME280;30155;52.164;21.236;2023-07-30T05:26:06;99802.05;;;18.96;81.67
44453;BME280;30155;52.164;21.236;2023-07-30T05:30:57;99809.05;;;18.91;81.43
44453;BME280;30155;52.164;21.236;2023-07-30T05:35:49;99809.89;;;18.86;81.50
44453;BME280;30155;52.164;21.236;2023-07-30T05:40:41;99817.08;;;18.93;81.54
44453;BME280;30155;52.164;21.236;2023-07-30T05:45:34;99826.16;;;19.05;81.48
44453;BME280;30155;52.164;21.236;2023-07-30T05:50:25;99834.09;;;19.26;81.04
44453;BME280;30155;52.164;21.236;2023-07-30T05:55:17;99838.19;;;19.24;80.06
44453;BME280;30155;52.164;21.236;2023-07-30T06:00:09;99841.46;;;19.32;79.65
44453;BME280;30155;52.164;21.236;2023-07-30T06:05:04;99844.55;;;19.39;79.12
44453;BME280;30155;52.164;21.236;2023-07-30T06:09:55;99840.64;;;19.46;77.81
44453;BME280;30155;52.164;21.236;2023-07-30T06:14:47;99848.73;;;19.56;77.75
44453;BME280;30155;52.164;21.236;2023-07-30T06:19:38;99845.80;;;19.75;77.45
44453;BME280;30155;52.164;21.236;2023-07-30T06:24:30;99844.67;;;20.08;76.58
44453;BME280;30155;52.164;21.236;2023-07-30T06:29:26;99848.30;;;20.67;75.79
44453;BME280;30155;52.164;21.236;2023-07-30T06:34:18;99845.30;;;20.81;76.00
44453;BME280;30155;52.164;21.236;2023-07-30T06:39:10;99847.29;;;20.71;76.10
44453;BME280;30155;52.164;21.236;2023-07-30T06:44:04;99849.02;;;20.62;75.64
44453;BME280;30155;52.164;21.236;2023-07-30T06:48:56;99853.25;;;20.61;75.13
44453;BME280;30155;52.164;21.236;2023-07-30T06:53:50;99850.89;;;21.13;74.17
44453;BME280;30155;52.164;21.236;2023-07-30T06:58:41;99846.23;;;21.67;73.09
44453;BME280;30155;52.164;21.236;2023-07-30T07:03:33;99849.36;;;22.01;72.05
44453;BME280;30155;52.164;21.236;2023-07-30T07:08:25;99847.93;;;22.94;70.22
44453;BME280;30155;52.164;21.236;2023-07-30T07:13:24;99848.09;;;22.83;69.50
44453;BME280;30155;52.164;21.236;2023-07-30T07:18:24;99851.04;;;22.27;69.80
44453;BME280;30155;52.164;21.236;2023-07-30T07:23:20;99846.09;;;22.66;69.14
44453;BME280;30155;52.164;21.236;2023-07-30T07:28:14;99857.56;;;23.65;66.77
44453;BME280;30155;52.164;21.236;2023-07-30T07:33:10;99856.21;;;23.78;66.43
44453;BME280;30155;52.164;21.236;2023-07-30T07:38:03;99853.06;;;24.25;65.13
44453;BME280;30155;52.164;21.236;2023-07-30T07:42:55;99856.58;;;24.42;64.34
44453;BME280;30155;52.164;21.236;2023-07-30T07:47:48;99862.17;;;24.33;63.89
44453;BME280;30155;52.164;21.236;2023-07-30T07:52:40;99859.32;;;26.66;59.34
44453;BME280;30155;52.164;21.236;2023-07-30T07:57:34;99840.69;;;29.95;55.27
44453;BME280;30155;52.164;21.236;2023-07-30T08:02:43;99853.55;;;29.34;55.47
44453;BME280;30155;52.164;21.236;2023-07-30T08:07:34;99862.50;;;27.70;55.61
44453;BME280;30155;52.164;21.236;2023-07-30T08:12:34;99859.59;;;26.84;56.41
44453;BME280;30155;52.164;21.236;2023-07-30T08:17:57;99858.70;;;25.92;56.37
44453;BME280;30155;52.164;21.236;2023-07-30T08:30:29;99868.17;;;24.70;58.54
44453;BME280;30155;52.164;21.236;2023-07-30T08:41:24;99856.48;;;25.93;56.49
44453;BME280;30155;52.164;21.236;2023-07-30T08:46:38;99870.98;;;26.76;54.65
44453;BME280;30155;52.164;21.236;2023-07-30T08:51:57;99878.34;;;26.17;55.34
44453;BME280;30155;52.164;21.236;2023-07-30T08:57:54;99883.36;;;25.41;55.77
44453;BME280;30155;52.164;21.236;2023-07-30T09:02:52;99887.05;;;25.23;56.87
44453;BME280;30155;52.164;21.236;2023-07-30T09:07:50;99887.96;;;25.35;56.70
44453;BME280;30155;52.164;21.236;2023-07-30T09:35:51;99890.73;;;25.14;56.20
44453;BME280;30155;52.164;21.236;2023-07-30T09:48:07;99895.15;;;25.88;55.13
44453;BME280;30155;52.164;21.236;2023-07-30T10:01:32;99901.17;;;29.61;49.94
44453;BME280;30155;52.164;21.236;2023-07-30T10:07:59;99900.11;;;29.73;49.83
44453;BME280;30155;52.164;21.236;2023-07-30T10:55:54;99872.45;;;34.25;39.33
44453;BME280;30155;52.164;21.236;2023-07-30T11:02:01;99866.03;;;31.95;40.99
44453;BME280;30155;52.164;21.236;2023-07-30T12:42:24;99841.86;;;27.57;46.88
44453;BME280;30155;52.164;21.236;2023-07-30T12:48:49;99839.34;;;26.95;47.29
44453;BME280;30155;52.164;21.236;2023-07-30T12:53:48;99835.12;;;26.53;48.32
44453;BME280;30155;52.164;21.236;2023-07-30T13:38:49;99831.39;;;27.96;47.75
44453;BME280;30155;52.164;21.236;2023-07-30T14:10:39;99814.14;;;28.74;46.38
44453;BME280;30155;52.164;21.236;2023-07-30T15:30:36;99778.64;;;28.24;45.94
44453;BME280;30155;52.164;21.236;2023-07-30T17:15:21;99815.83;;;25.70;50.09
44453;BME280;30155;52.164;21.236;2023-07-30T17:21:01;99826.75;;;25.51;50.24
44453;BME280;30155;52.164;21.236;2023-07-30T17:38:56;99830.11;;;24.60;51.97
44453;BME280;30155;52.164;21.236;2023-07-30T17:43:47;99830.11;;;24.37;52.55
44453;BME280;30155;52.164;21.236;2023-07-30T17:55:06;99830.90;;;23.85;55.26
44453;BME280;30155;52.164;21.236;2023-07-30T18:00:05;99832.03;;;23.66;55.96
44453;BME280;30155;52.164;21.236;2023-07-30T18:24:50;99833.77;;;22.73;58.13
44453;BME280;30155;52.164;21.236;2023-07-30T18:37:22;99835.66;;;22.35;59.26
44453;BME280;30155;52.164;21.236;2023-07-30T18:55:20;99855.73;;;21.92;61.10
44453;BME280;30155;52.164;21.236;2023-07-30T19:01:16;99859.45;;;21.76;61.71
44453;BME280;30155;52.164;21.236;2023-07-30T19:28:06;99860.42;;;21.17;62.84
44453;BME280;30155;52.164;21.236;2023-07-30T20:35:18;99890.02;;;19.62;66.78
44453;BME280;30155;52.164;21.236;2023-07-30T20:47:33;99885.08;;;19.36;67.56
44453;BME280;30155;52.164;21.236;2023-07-30T21:21:40;99882.42;;;19.03;69.35
44453;BME280;30155;52.164;21.236;2023-07-30T21:46:30;99886.11;;;18.91;69.98
44453;BME280;30155;52.164;21.236;2023-07-30T22:17:59;99872.74;;;18.44;70.91
44453;BME280;30155;52.164;21.236;2023-07-30T22:24:12;99863.39;;;18.33;71.20
44453;BME280;30155;52.164;21.236;2023-07-30T22:36:00;99868.14;;;18.14;71.54
44453;BME280;30155;52.164;21.236;2023-07-30T22:54:46;99865.55;;;18.00;72.27
44453;BME280;30155;52.164;21.236;2023-07-30T23:28:22;99873.05;;;17.73;73.42
